createdAt,value
2023-03-26T00:01:40.440Z,97700.81
2023-03-26T00:04:34.682Z,97704.70
2023-03-26T00:07:28.863Z,97704.72
2023-03-26T00:10:23.093Z,97705.09
2023-03-26T00:13:17.375Z,97704.31
2023-03-26T00:17:08.209Z,97711.70
2023-03-26T00:19:38.061Z,97709.83
2023-03-26T00:22:32.290Z,97712.67
2023-03-26T00:25:26.526Z,97708.77
2023-03-26T00:28:21.754Z,97709.84
2023-03-26T00:31:17.833Z,97705.64
2023-03-26T00:34:11.796Z,97693.95
2023-03-26T00:37:06.070Z,97694.99
2023-03-26T00:40:04.913Z,97686.05
2023-03-26T00:42:59.115Z,97694.02
2023-03-26T00:45:55.684Z,97696.72
2023-03-26T00:48:50.848Z,97699.95
2023-03-26T00:51:45.407Z,97700.99
2023-03-26T00:54:39.560Z,97695.92
2023-03-26T00:57:35.945Z,97689.04
2023-03-26T01:00:36.577Z,97683.67
2023-03-26T01:03:34.863Z,97675.84
2023-03-26T01:06:33.867Z,97676.50
2023-03-26T01:09:42.772Z,97676.33
2023-03-26T01:12:37.092Z,97669.89
2023-03-26T01:15:31.458Z,97663.04
2023-03-26T01:18:27.418Z,97661.98
2023-03-26T01:21:30.196Z,97670.48
2023-03-26T01:24:24.543Z,97665.27
2023-03-26T01:27:33.687Z,97666.69
2023-03-26T01:30:37.124Z,97666.59
2023-03-26T01:33:58.141Z,97657.88
2023-03-26T01:36:59.391Z,97654.23
2023-03-26T01:40:05.429Z,97658.11
2023-03-26T01:43:10.384Z,97660.96
2023-03-26T01:46:08.054Z,97657.80
2023-03-26T01:49:03.116Z,97657.23
2023-03-26T01:51:58.888Z,97655.18
2023-03-26T01:54:53.161Z,97658.86
2023-03-26T01:57:59.637Z,97655.45
2023-03-26T02:01:02.149Z,97651.13
2023-03-26T02:04:09.835Z,97652.80
2023-03-26T02:07:09.246Z,97652.02
2023-03-26T02:10:10.397Z,97649.86
2023-03-26T02:13:06.118Z,97655.71
2023-03-26T02:16:02.893Z,97647.85
2023-03-26T02:18:59.267Z,97650.08
2023-03-26T02:21:53.645Z,97647.88
2023-03-26T02:24:47.802Z,97654.52
2023-03-26T02:27:41.842Z,97650.98
2023-03-26T02:30:35.897Z,97654.63
2023-03-26T02:33:30.120Z,97656.75
2023-03-26T02:36:27.943Z,97655.45
2023-03-26T02:39:21.940Z,97655.48
2023-03-26T02:42:16.497Z,97656.07
2023-03-26T02:45:11.592Z,97656.87
2023-03-26T02:48:08.000Z,97650.17
2023-03-26T02:51:02.050Z,97646.96
2023-03-26T02:53:55.918Z,97634.62
2023-03-26T02:56:50.289Z,97632.88
2023-03-26T02:59:46.338Z,97634.57
2023-03-26T03:02:40.459Z,97632.67
2023-03-26T03:05:37.979Z,97625.02
2023-03-26T03:08:32.295Z,97621.77
2023-03-26T03:11:26.558Z,97623.15
2023-03-26T03:14:20.681Z,97621.02
2023-03-26T03:17:00.085Z,97622.89
2023-03-26T03:19:54.231Z,97629.11
2023-03-26T03:22:48.439Z,97632.42
2023-03-26T03:25:42.599Z,97629.82
2023-03-26T03:28:36.944Z,97629.13
2023-03-26T03:31:31.188Z,97620.06
2023-03-26T03:34:25.573Z,97621.13
2023-03-26T03:37:20.950Z,97618.27
2023-03-26T03:40:16.279Z,97621.34
2023-03-26T03:43:10.040Z,97621.14
2023-03-26T03:46:03.811Z,97621.59
2023-03-26T03:48:57.692Z,97617.53
2023-03-26T03:51:52.068Z,97616.16
2023-03-26T03:54:46.653Z,97623.70
2023-03-26T03:57:41.427Z,97625.42
2023-03-26T04:00:38.349Z,97630.23
2023-03-26T04:03:38.427Z,97632.94
2023-03-26T04:06:32.775Z,97634.07
2023-03-26T04:09:26.714Z,97638.77
2023-03-26T04:12:21.183Z,97639.44
2023-03-26T04:15:15.547Z,97641.19
2023-03-26T04:18:11.772Z,97636.48
2023-03-26T04:21:07.474Z,97634.76
2023-03-26T04:24:02.198Z,97641.05
2023-03-26T04:26:41.680Z,97639.05
2023-03-26T04:29:42.921Z,97636.55
2023-03-26T04:32:38.676Z,97633.45
2023-03-26T04:35:35.622Z,97632.73
2023-03-26T04:38:30.202Z,97629.84
2023-03-26T04:41:26.334Z,97632.34
2023-03-26T04:44:22.595Z,97633.89
2023-03-26T04:47:16.565Z,97638.82
2023-03-26T04:50:13.355Z,97636.56
2023-03-26T04:53:07.864Z,97634.98
2023-03-26T04:56:08.826Z,97633.73
2023-03-26T04:59:04.785Z,97631.02
2023-03-26T05:02:00.193Z,97629.46
2023-03-26T05:04:54.420Z,97632.31
2023-03-26T05:07:48.588Z,97631.94
2023-03-26T05:10:42.654Z,97624.60
2023-03-26T05:13:36.841Z,97621.08
2023-03-26T05:16:31.908Z,97622.52
2023-03-26T05:19:26.521Z,97620.77
2023-03-26T05:22:20.853Z,97624.17
2023-03-26T05:25:15.014Z,97627.83
2023-03-26T05:28:10.557Z,97626.66
2023-03-26T05:31:04.477Z,97625.41
2023-03-26T05:34:00.335Z,97628.52
2023-03-26T05:36:54.444Z,97625.95
2023-03-26T05:39:48.942Z,97627.60
2023-03-26T05:42:43.820Z,97623.41
2023-03-26T05:45:37.689Z,97621.59
2023-03-26T05:48:31.777Z,97619.56
2023-03-26T05:51:26.002Z,97625.75
2023-03-26T05:54:20.095Z,97630.98
2023-03-26T05:57:14.324Z,97623.18
2023-03-26T06:00:12.173Z,97627.20
2023-03-26T06:03:06.897Z,97623.33
2023-03-26T06:06:01.186Z,97635.40
2023-03-26T06:09:01.046Z,97639.05
2023-03-26T06:11:56.689Z,97642.61
2023-03-26T06:14:50.644Z,97644.66
2023-03-26T06:17:44.821Z,97640.70
2023-03-26T06:20:38.735Z,97638.51
2023-03-26T06:23:33.416Z,97638.80
2023-03-26T06:26:27.478Z,97639.84
2023-03-26T06:29:21.716Z,97638.04
2023-03-26T06:32:20.057Z,97639.61
2023-03-26T06:35:14.734Z,97641.39
2023-03-26T06:38:09.352Z,97647.94
2023-03-26T06:41:08.647Z,97645.25
2023-03-26T06:44:02.642Z,97643.66
2023-03-26T06:46:56.580Z,97639.59
2023-03-26T06:49:50.692Z,97637.38
2023-03-26T06:52:44.768Z,97636.74
2023-03-26T06:55:38.596Z,97637.33
2023-03-26T06:58:33.181Z,97636.06
2023-03-26T07:01:27.737Z,97635.36
2023-03-26T07:04:22.487Z,97639.45
2023-03-26T07:07:16.661Z,97643.49
2023-03-26T07:10:14.303Z,97642.85
2023-03-26T07:13:06.621Z,97645.34
2023-03-26T07:16:00.743Z,97643.42
2023-03-26T07:18:55.380Z,97642.63
2023-03-26T07:21:50.898Z,97640.80
2023-03-26T07:24:46.895Z,97640.37
2023-03-26T07:27:54.229Z,97640.09
2023-03-26T07:31:18.848Z,97645.06
2023-03-26T07:34:27.437Z,97646.95
2023-03-26T07:37:35.691Z,97647.09
2023-03-26T07:40:50.258Z,97642.06
2023-03-26T07:44:04.232Z,97651.64
2023-03-26T07:47:00.330Z,97652.41
2023-03-26T07:49:57.871Z,97653.19
2023-03-26T07:52:53.325Z,97657.40
2023-03-26T07:55:54.847Z,97654.70
2023-03-26T07:59:25.765Z,97653.02
2023-03-26T08:02:49.107Z,97653.99
2023-03-26T08:05:48.918Z,97658.31
2023-03-26T08:08:54.924Z,97661.25
2023-03-26T08:11:58.832Z,97658.93
2023-03-26T08:15:03.060Z,97656.62
2023-03-26T08:18:17.037Z,97655.23
2023-03-26T08:21:18.160Z,97655.14
2023-03-26T08:24:22.158Z,97651.27
2023-03-26T08:27:27.700Z,97651.80
2023-03-26T08:30:24.514Z,97644.21
2023-03-26T08:33:21.556Z,97641.38
2023-03-26T08:36:15.944Z,97644.02
2023-03-26T08:39:10.109Z,97640.45
2023-03-26T08:42:49.727Z,97643.23
2023-03-26T08:46:16.513Z,97640.60
2023-03-26T08:49:48.134Z,97637.11
2023-03-26T08:53:51.540Z,97634.69
2023-03-26T08:56:57.788Z,97632.53
2023-03-26T09:01:01.369Z,97634.95
2023-03-26T09:04:18.497Z,97623.79
2023-03-26T09:08:04.025Z,97627.79
2023-03-26T09:11:34.056Z,97620.41
2023-03-26T09:14:51.927Z,97620.06
2023-03-26T09:18:07.316Z,97616.45
2023-03-26T09:21:48.480Z,97615.16
2023-03-26T09:25:26.259Z,97611.48
2023-03-26T09:29:08.777Z,97612.79
2023-03-26T09:32:44.989Z,97617.35
2023-03-26T09:35:54.984Z,97623.59
2023-03-26T09:38:55.465Z,97634.55
2023-03-26T09:42:06.786Z,97636.02
2023-03-26T09:45:41.537Z,97634.42
2023-03-26T09:48:57.515Z,97630.52
2023-03-26T09:52:14.838Z,97628.60
2023-03-26T09:55:30.555Z,97623.05
2023-03-26T09:58:48.415Z,97612.82
2023-03-26T10:01:52.452Z,97610.48
2023-03-26T10:05:20.111Z,97609.85
2023-03-26T10:08:44.383Z,97607.56
2023-03-26T10:11:59.649Z,97608.73
2023-03-26T10:15:07.005Z,97608.02
2023-03-26T10:18:27.678Z,97611.02
2023-03-26T10:21:37.917Z,97611.44
2023-03-26T10:24:54.185Z,97612.35
2023-03-26T10:28:01.510Z,97610.98
2023-03-26T10:31:35.307Z,97607.64
2023-03-26T10:34:51.706Z,97607.73
2023-03-26T10:38:03.629Z,97598.14
2023-03-26T10:41:09.803Z,97599.56
2023-03-26T10:44:45.860Z,97597.86
2023-03-26T10:48:31.845Z,97595.33
2023-03-26T10:51:51.225Z,97594.77
2023-03-26T10:54:56.058Z,97593.14
2023-03-26T10:57:56.218Z,97592.14
2023-03-26T11:01:17.697Z,97588.93
2023-03-26T11:04:25.669Z,97581.39
2023-03-26T11:07:27.996Z,97575.88
2023-03-26T11:10:40.446Z,97567.11
2023-03-26T11:13:49.307Z,97562.52
2023-03-26T11:16:59.354Z,97560.89
2023-03-26T11:19:58.992Z,97555.17
2023-03-26T11:23:13.839Z,97555.86
2023-03-26T11:26:16.689Z,97551.46
2023-03-26T11:29:32.344Z,97549.45
2023-03-26T11:32:36.506Z,97544.10
2023-03-26T11:35:39.493Z,97539.71
2023-03-26T11:38:38.912Z,97542.24
2023-03-26T11:41:22.860Z,97538.63
2023-03-26T11:44:28.266Z,97533.02
2023-03-26T11:47:26.099Z,97535.44
2023-03-26T11:50:19.492Z,97529.88
2023-03-26T11:53:19.250Z,97525.48
2023-03-26T11:56:14.843Z,97526.95
2023-03-26T11:59:32.747Z,97521.84
2023-03-26T12:02:34.435Z,97517.97
2023-03-26T12:05:33.529Z,97515.45
2023-03-26T12:08:44.135Z,97516.42
2023-03-26T12:11:42.131Z,97512.98
2023-03-26T12:14:43.491Z,97512.30
2023-03-26T12:17:39.836Z,97506.17
2023-03-26T12:20:39.402Z,97503.88
2023-03-26T12:23:56.386Z,97494.96
2023-03-26T12:26:57.756Z,97489.62
2023-03-26T12:30:00.271Z,97485.27
2023-03-26T12:32:58.574Z,97477.97
2023-03-26T12:36:16.251Z,97471.67
2023-03-26T12:40:08.609Z,97467.12
2023-03-26T12:44:46.408Z,97458.56
2023-03-26T12:47:54.537Z,97451.69
2023-03-26T12:49:41.702Z,97447.98
2023-03-26T12:53:01.025Z,97438.68
2023-03-26T12:56:04.009Z,97435.16
2023-03-26T12:59:33.900Z,97435.27
2023-03-26T13:03:21.920Z,97433.36
2023-03-26T13:06:31.368Z,97425.52
2023-03-26T13:10:38.310Z,97427.17
2023-03-26T13:14:00.774Z,97425.89
2023-03-26T13:17:02.266Z,97417.89
2023-03-26T13:20:07.848Z,97419.58
2023-03-26T13:23:11.525Z,97413.65
2023-03-26T13:26:11.963Z,97408.90
2023-03-26T13:29:34.314Z,97409.52
2023-03-26T13:32:43.403Z,97409.06
2023-03-26T13:35:45.236Z,97407.98
2023-03-26T13:38:58.767Z,97403.69
2023-03-26T13:42:29.009Z,97402.34
2023-03-26T13:45:50.058Z,97403.83
2023-03-26T13:48:52.923Z,97397.27
2023-03-26T13:51:53.191Z,97398.72
2023-03-26T13:54:51.071Z,97398.92
2023-03-26T13:57:53.651Z,97399.11
2023-03-26T14:01:04.093Z,97397.27
2023-03-26T14:04:05.736Z,97398.18
2023-03-26T14:07:08.250Z,97391.65
2023-03-26T14:10:06.794Z,97393.96
2023-03-26T14:13:07.896Z,97386.98
2023-03-26T14:16:12.891Z,97390.87
2023-03-26T14:19:34.810Z,97387.32
2023-03-26T14:22:40.530Z,97389.58
2023-03-26T14:25:51.079Z,97386.33
2023-03-26T14:29:24.206Z,97384.33
2023-03-26T14:32:54.184Z,97379.80
2023-03-26T14:36:00.697Z,97377.39
2023-03-26T14:39:48.872Z,97376.90
2023-03-26T14:42:47.023Z,97370.75
2023-03-26T14:46:01.291Z,97367.63
2023-03-26T14:49:14.297Z,97364.21
2023-03-26T14:52:14.963Z,97364.53
2023-03-26T14:55:19.618Z,97363.95
2023-03-26T14:59:13.050Z,97365.17
2023-03-26T15:02:44.682Z,97357.05
2023-03-26T15:06:26.355Z,97356.99
2023-03-26T15:10:06.138Z,97348.17
2023-03-26T15:13:42.164Z,97341.79
2023-03-26T15:17:20.214Z,97338.02
2023-03-26T15:21:18.249Z,97341.39
2023-03-26T15:24:51.513Z,97340.86
2023-03-26T15:28:29.683Z,97338.75
2023-03-26T15:31:48.886Z,97339.48
2023-03-26T15:35:36.128Z,97336.71
2023-03-26T15:39:28.434Z,97332.78
2023-03-26T15:42:33.581Z,97329.23
2023-03-26T15:45:39.653Z,97330.56
2023-03-26T15:48:55.515Z,97332.70
2023-03-26T15:51:59.937Z,97331.96
2023-03-26T15:55:03.772Z,97328.38
2023-03-26T15:58:06.660Z,97328.27
2023-03-26T16:01:19.108Z,97329.02
2023-03-26T16:04:35.444Z,97322.77
2023-03-26T16:07:50.060Z,97321.40
2023-03-26T16:10:52.428Z,97319.67
2023-03-26T16:14:09.208Z,97318.41
2023-03-26T16:17:06.395Z,97319.06
2023-03-26T16:20:31.152Z,97315.04
2023-03-26T16:23:32.014Z,97314.58
2023-03-26T16:27:04.967Z,97311.52
2023-03-26T16:30:27.292Z,97314.30
2023-03-26T16:33:26.327Z,97312.34
2023-03-26T16:36:36.142Z,97310.21
2023-03-26T16:39:45.428Z,97311.80
2023-03-26T16:42:43.137Z,97307.30
2023-03-26T16:45:45.126Z,97306.88
2023-03-26T16:48:49.537Z,97307.90
2023-03-26T16:52:12.707Z,97306.98
2023-03-26T16:55:21.049Z,97306.52
2023-03-26T16:58:28.000Z,97301.89
2023-03-26T17:01:32.526Z,97303.38
2023-03-26T17:04:32.200Z,97306.89
2023-03-26T17:07:36.101Z,97309.64
2023-03-26T17:10:40.784Z,97312.17
2023-03-26T17:13:48.716Z,97309.23
2023-03-26T17:17:03.889Z,97316.95
2023-03-26T17:20:08.525Z,97310.86
2023-03-26T17:23:18.847Z,97312.17
2023-03-26T17:26:32.594Z,97311.77
2023-03-26T17:29:40.789Z,97312.17
2023-03-26T17:33:00.742Z,97309.53
2023-03-26T17:36:25.079Z,97304.95
2023-03-26T17:40:12.236Z,97307.73
2023-03-26T17:43:11.125Z,97308.80
2023-03-26T17:46:10.200Z,97305.00
2023-03-26T17:49:14.262Z,97311.36
2023-03-26T17:52:19.379Z,97313.96
2023-03-26T17:55:20.106Z,97308.98
2023-03-26T17:58:28.210Z,97308.48
2023-03-26T18:01:33.141Z,97308.96
2023-03-26T18:04:38.778Z,97312.89
2023-03-26T18:08:13.586Z,97316.95
2023-03-26T18:11:50.801Z,97309.84
2023-03-26T18:15:20.775Z,97316.06
2023-03-26T18:18:19.873Z,97315.01
2023-03-26T18:21:20.736Z,97312.88
2023-03-26T18:24:20.292Z,97316.34
2023-03-26T18:27:17.797Z,97315.16
2023-03-26T18:30:22.658Z,97314.83
2023-03-26T18:33:18.182Z,97316.61
2023-03-26T18:36:15.092Z,97318.83
2023-03-26T18:39:14.478Z,97317.45
2023-03-26T18:42:22.879Z,97307.66
2023-03-26T18:45:50.820Z,97308.53
2023-03-26T18:48:47.622Z,97310.90
2023-03-26T18:51:54.080Z,97314.94
2023-03-26T18:54:53.587Z,97311.67
2023-03-26T18:57:51.177Z,97314.58
2023-03-26T19:00:45.406Z,97314.54
2023-03-26T19:03:43.663Z,97322.15
2023-03-26T19:06:42.968Z,97317.40
2023-03-26T19:09:37.365Z,97316.64
2023-03-26T19:12:35.767Z,97311.55
2023-03-26T19:15:31.940Z,97311.85
2023-03-26T19:18:29.033Z,97306.85
2023-03-26T19:21:23.808Z,97301.86
2023-03-26T19:24:19.234Z,97302.78
2023-03-26T19:27:14.712Z,97300.15
2023-03-26T19:30:12.384Z,97298.63
2023-03-26T19:33:18.316Z,97297.73
2023-03-26T19:36:24.960Z,97296.45
2023-03-26T19:39:27.203Z,97291.19
2023-03-26T19:42:43.209Z,97279.77
2023-03-26T19:45:59.624Z,97281.77
2023-03-26T19:48:57.611Z,97282.54
2023-03-26T19:51:53.396Z,97280.29
2023-03-26T19:54:59.762Z,97279.15
2023-03-26T19:57:54.812Z,97277.04
2023-03-26T20:00:48.776Z,97274.23
2023-03-26T20:03:45.432Z,97268.98
2023-03-26T20:09:53.690Z,97263.33
2023-03-26T20:12:47.746Z,97259.48
2023-03-26T20:15:43.894Z,97261.23
2023-03-26T20:18:38.796Z,97264.33
2023-03-26T20:21:34.662Z,97254.46
2023-03-26T20:24:30.041Z,97254.94
2023-03-26T20:27:24.064Z,97257.88
2023-03-26T20:30:27.471Z,97261.90
2023-03-26T20:33:31.253Z,97257.79
2023-03-26T20:36:33.763Z,97256.60
2023-03-26T20:39:29.174Z,97256.20
2023-03-26T20:42:23.177Z,97247.59
2023-03-26T20:45:23.774Z,97239.28
2023-03-26T20:48:17.490Z,97236.21
2023-03-26T20:51:15.615Z,97227.90
2023-03-26T20:54:20.134Z,97226.77
2023-03-26T20:57:14.343Z,97222.20
2023-03-26T21:00:15.968Z,97222.09
2023-03-26T21:03:12.593Z,97226.13
2023-03-26T21:06:13.191Z,97226.38
2023-03-26T21:09:10.271Z,97215.13
2023-03-26T21:12:09.697Z,97213.77
2023-03-26T21:15:10.586Z,97206.35
2023-03-26T21:18:12.801Z,97201.84
2023-03-26T21:21:32.052Z,97200.66
2023-03-26T21:24:42.909Z,97203.27
2023-03-26T21:27:47.393Z,97203.81
2023-03-26T21:30:42.485Z,97198.21
2023-03-26T21:33:36.427Z,97194.89
2023-03-26T21:36:32.340Z,97194.48
2023-03-26T21:39:27.856Z,97197.10
2023-03-26T21:42:26.692Z,97198.84
2023-03-26T21:45:23.188Z,97194.34
2023-03-26T21:48:18.459Z,97197.17
2023-03-26T21:51:17.601Z,97193.48
2023-03-26T21:54:24.336Z,97192.52
2023-03-26T21:57:37.677Z,97188.96
2023-03-26T22:04:03.213Z,97177.92
2023-03-26T22:07:02.050Z,97179.48
2023-03-26T22:09:57.120Z,97175.50
2023-03-26T22:12:50.821Z,97172.77
2023-03-26T22:15:48.193Z,97170.14
2023-03-26T22:18:43.631Z,97166.98
2023-03-26T22:21:37.382Z,97163.96
2023-03-26T22:24:31.072Z,97165.63
2023-03-26T22:27:24.684Z,97164.27
2023-03-26T22:30:20.789Z,97168.01
2023-03-26T22:33:18.972Z,97171.48
2023-03-26T22:36:22.824Z,97166.41
2023-03-26T22:39:17.245Z,97159.95
2023-03-26T22:42:11.074Z,97155.04
2023-03-26T22:45:05.152Z,97147.22
2023-03-26T22:48:04.055Z,97148.29
2023-03-26T22:51:08.294Z,97148.81
2023-03-26T22:54:00.436Z,97154.71
2023-03-26T22:56:55.482Z,97150.94
2023-03-26T22:59:51.995Z,97143.50
2023-03-26T23:02:46.373Z,97142.73
2023-03-26T23:05:39.972Z,97138.77
2023-03-26T23:08:34.326Z,97136.73
2023-03-26T23:11:29.626Z,97136.64
2023-03-26T23:14:23.233Z,97133.87
2023-03-26T23:17:17.613Z,97137.98
2023-03-26T23:20:15.474Z,97137.03
2023-03-26T23:23:09.562Z,97135.91
2023-03-26T23:26:06.851Z,97130.77
2023-03-26T23:29:00.646Z,97126.43
2023-03-26T23:31:54.625Z,97124.69
2023-03-26T23:34:52.174Z,97121.14
2023-03-26T23:37:46.157Z,97117.60
2023-03-26T23:40:40.119Z,97114.11
2023-03-26T23:43:34.201Z,97110.55
2023-03-26T23:46:33.091Z,97109.06
2023-03-26T23:49:26.977Z,97108.99
2023-03-26T23:52:20.679Z,97104.10
2023-03-26T23:55:14.482Z,97102.30
2023-03-26T23:58:09.020Z,97100.94
